createdAt,value
2019-04-19T00:01:22.512Z,15.60
2019-04-19T00:03:59.102Z,15.00
2019-04-19T00:06:35.773Z,15.20
2019-04-19T00:09:25.210Z,14.83
2019-04-19T00:11:43.916Z,15.67
2019-04-19T00:14:10.782Z,15.10
2019-04-19T00:16:42.726Z,16.02
2019-04-19T00:19:29.755Z,15.45
2019-04-19T00:22:08.623Z,15.28
2019-04-19T00:24:18.980Z,15.10
2019-04-19T00:26:50.740Z,15.10
2019-04-19T00:29:33.779Z,15.03
2019-04-19T00:32:11.908Z,14.78
2019-04-19T00:34:27.475Z,15.58
2019-04-19T00:36:59.491Z,14.90
2019-04-19T00:39:51.783Z,15.15
2019-04-19T00:42:24.736Z,15.30
2019-04-19T00:45:07.981Z,15.23
2019-04-19T00:47:40.839Z,15.48
2019-04-19T00:50:07.663Z,14.90
2019-04-19T00:52:44.543Z,15.10
2019-04-19T00:55:12.237Z,14.63
2019-04-19T00:57:42.254Z,14.80
2019-04-19T01:00:12.917Z,14.85
2019-04-19T01:02:41.981Z,15.18
2019-04-19T01:05:16.524Z,14.45
2019-04-19T01:07:45.463Z,14.70
2019-04-19T01:10:32.566Z,15.78
2019-04-19T01:13:05.459Z,15.63
2019-04-19T01:15:31.023Z,14.40
2019-04-19T01:18:11.695Z,15.83
2019-04-19T01:20:27.420Z,15.50
2019-04-19T01:23:03.806Z,15.40
2019-04-19T01:25:32.245Z,14.93
2019-04-19T01:28:10.977Z,15.25
2019-04-19T01:30:39.875Z,15.80
2019-04-19T01:33:08.912Z,15.08
2019-04-19T01:35:45.137Z,15.20
2019-04-19T01:38:13.623Z,16.00
2019-04-19T01:41:03.212Z,15.25
2019-04-19T01:43:40.511Z,15.83
2019-04-19T01:46:13.093Z,15.90
2019-04-19T01:48:50.605Z,14.93
2019-04-19T01:51:36.959Z,15.53
2019-04-19T01:54:07.630Z,16.23
2019-04-19T01:56:22.023Z,15.70
2019-04-19T01:58:57.333Z,15.10
2019-04-19T02:01:29.177Z,16.15
2019-04-19T02:03:58.820Z,16.23
2019-04-19T02:06:35.032Z,16.23
2019-04-19T02:09:07.458Z,15.40
2019-04-19T02:11:57.938Z,15.65
2019-04-19T02:14:30.643Z,15.93
2019-04-19T02:17:02.030Z,15.93
2019-04-19T02:19:31.354Z,17.15
2019-04-19T02:22:11.385Z,16.52
2019-04-19T02:24:41.767Z,16.02
2019-04-19T02:27:10.122Z,14.83
2019-04-19T02:29:50.061Z,15.28
2019-04-19T02:32:31.033Z,15.38
2019-04-19T02:37:53.056Z,15.78
2019-04-19T02:50:42.994Z,15.03
2019-04-19T02:53:01.846Z,15.50
2019-04-19T02:55:47.395Z,15.55
2019-04-19T02:58:13.050Z,14.63
2019-04-19T03:00:54.582Z,15.38
2019-04-19T03:03:22.090Z,16.00
2019-04-19T03:05:47.451Z,15.68
2019-04-19T03:08:00.134Z,16.32
2019-04-19T03:10:36.869Z,16.67
2019-04-19T03:13:20.194Z,16.07
2019-04-19T03:15:53.103Z,15.93
2019-04-19T03:18:29.047Z,15.50
2019-04-19T03:20:55.470Z,16.00
2019-04-19T03:23:26.331Z,15.43
2019-04-19T03:25:58.944Z,16.23
2019-04-19T03:28:31.254Z,16.75
2019-04-19T03:31:27.602Z,16.10
2019-04-19T03:34:00.930Z,15.83
2019-04-19T03:36:14.901Z,15.83
2019-04-19T03:38:43.046Z,15.05
2019-04-19T03:41:40.788Z,16.00
2019-04-19T03:44:18.513Z,16.93
2019-04-19T03:46:58.030Z,16.20
2019-04-19T03:49:30.952Z,15.78
2019-04-19T03:52:04.676Z,16.07
2019-04-19T03:54:23.646Z,16.05
2019-04-19T03:56:58.910Z,15.48
2019-04-19T03:59:14.190Z,14.73
2019-04-19T04:01:51.016Z,15.25
2019-04-19T04:04:22.285Z,15.83
2019-04-19T04:06:50.613Z,15.80
2019-04-19T04:09:43.371Z,16.43
2019-04-19T04:12:25.120Z,16.37
2019-04-19T04:15:04.481Z,15.18
2019-04-19T04:17:26.770Z,16.05
2019-04-19T04:19:58.726Z,16.52
2019-04-19T04:22:33.474Z,17.05
2019-04-19T04:25:11.624Z,16.00
2019-04-19T04:27:49.706Z,16.45
2019-04-19T04:30:19.874Z,16.27
2019-04-19T04:32:53.732Z,16.20
2019-04-19T04:35:33.135Z,15.85
2019-04-19T04:37:58.549Z,15.83
2019-04-19T04:40:21.015Z,15.88
2019-04-19T04:43:04.081Z,15.80
2019-04-19T04:45:49.562Z,15.55
2019-04-19T04:48:27.555Z,16.25
2019-04-19T04:51:12.537Z,16.07
2019-04-19T04:53:25.848Z,16.12
2019-04-19T04:56:10.927Z,16.35
2019-04-19T04:58:45.641Z,16.60
2019-04-19T05:01:26.892Z,14.90
2019-04-19T05:04:02.035Z,15.28
2019-04-19T05:06:35.338Z,16.75
2019-04-19T05:09:16.923Z,15.35
2019-04-19T05:11:51.110Z,15.05
2019-04-19T05:14:18.251Z,15.25
2019-04-19T05:17:04.028Z,15.00
2019-04-19T05:19:25.278Z,15.28
2019-04-19T05:21:51.360Z,15.32
2019-04-19T05:24:42.824Z,16.07
2019-04-19T05:27:10.355Z,15.30
2019-04-19T05:29:23.217Z,16.07
2019-04-19T05:31:54.215Z,15.48
2019-04-19T05:34:42.752Z,15.65
2019-04-19T05:37:11.615Z,15.75
2019-04-19T05:39:55.774Z,14.95
2019-04-19T05:42:31.859Z,15.53
2019-04-19T05:45:21.877Z,15.28
2019-04-19T05:47:33.406Z,15.53
2019-04-19T05:50:18.564Z,15.68
2019-04-19T05:52:42.377Z,16.57
2019-04-19T05:54:58.533Z,16.48
2019-04-19T05:57:46.453Z,15.40
2019-04-19T06:00:23.519Z,16.25
2019-04-19T06:02:53.568Z,17.00
2019-04-19T06:05:36.660Z,15.45
2019-04-19T06:07:56.102Z,16.50
2019-04-19T06:10:17.363Z,16.02
2019-04-19T06:12:51.497Z,16.97
2019-04-19T06:15:45.110Z,16.52
2019-04-19T06:18:18.973Z,16.45
2019-04-19T06:21:07.732Z,15.83
2019-04-19T06:23:31.023Z,15.77
2019-04-19T06:26:35.075Z,15.87
2019-04-19T06:28:48.023Z,15.87
2019-04-19T06:31:14.044Z,15.20
2019-04-19T06:33:44.442Z,15.83
2019-04-19T06:35:59.479Z,14.87
2019-04-19T06:38:28.902Z,15.47
2019-04-19T06:41:06.717Z,15.90
2019-04-19T06:43:43.483Z,15.43
2019-04-19T06:46:17.928Z,16.10
2019-04-19T06:48:43.115Z,16.00
2019-04-19T06:51:20.472Z,16.13
2019-04-19T06:53:51.748Z,15.13
2019-04-19T06:56:24.565Z,14.30
2019-04-19T06:58:57.689Z,14.40
2019-04-19T07:01:31.765Z,14.77
2019-04-19T07:03:54.254Z,14.73
2019-04-19T07:06:39.752Z,15.40
2019-04-19T07:09:21.292Z,15.00
2019-04-19T07:11:50.046Z,14.70
2019-04-19T07:14:10.286Z,14.27
2019-04-19T07:16:55.753Z,14.20
2019-04-19T07:19:33.152Z,13.53
2019-04-19T07:21:57.402Z,13.87
2019-04-19T07:24:40.411Z,14.00
2019-04-19T07:27:03.177Z,14.20
2019-04-19T07:29:19.505Z,14.63
2019-04-19T07:31:51.209Z,13.30
2019-04-19T07:34:38.401Z,13.60
2019-04-19T07:37:14.405Z,13.60
2019-04-19T07:39:54.461Z,14.20
2019-04-19T07:42:22.500Z,14.10
2019-04-19T07:44:53.828Z,14.30
2019-04-19T07:47:35.758Z,14.20
2019-04-19T07:50:04.936Z,14.27
2019-04-19T07:52:38.648Z,14.53
2019-04-19T07:55:05.700Z,13.67
2019-04-19T07:58:04.771Z,13.73
2019-04-19T08:00:37.555Z,13.33
2019-04-19T08:03:11.812Z,13.90
2019-04-19T08:05:43.938Z,13.40
2019-04-19T08:08:30.245Z,13.40
2019-04-19T08:15:55.120Z,13.70
2019-04-19T08:18:41.160Z,13.47
2019-04-19T08:28:20.417Z,13.87
2019-04-19T08:30:46.663Z,13.90
2019-04-19T08:33:14.675Z,14.40
2019-04-19T08:35:50.616Z,13.53
2019-04-19T08:38:23.053Z,13.50
2019-04-19T08:41:05.856Z,13.47
2019-04-19T08:43:43.898Z,13.40
2019-04-19T08:45:58.980Z,13.23
2019-04-19T08:48:47.818Z,13.40
2019-04-19T08:51:37.184Z,13.80
2019-04-19T08:54:28.681Z,13.30
2019-04-19T08:56:49.577Z,13.40
2019-04-19T09:02:05.298Z,13.33
2019-04-19T09:04:34.630Z,12.70
2019-04-19T09:07:35.219Z,12.90
2019-04-19T09:09:48.244Z,13.43
2019-04-19T09:12:12.280Z,12.70
2019-04-19T09:14:52.303Z,13.20
2019-04-19T09:17:24.613Z,13.13
2019-04-19T09:22:23.767Z,13.63
2019-04-19T09:24:51.907Z,12.90
2019-04-19T09:27:39.440Z,13.30
2019-04-19T09:30:04.478Z,12.77
2019-04-19T09:32:21.728Z,13.30
2019-04-19T09:34:59.761Z,13.13
2019-04-19T09:37:39.961Z,12.63
2019-04-19T09:40:04.620Z,13.87
2019-04-19T09:42:38.932Z,13.10
2019-04-19T09:45:02.609Z,12.40
2019-04-19T09:47:33.423Z,12.80
2019-04-19T09:50:14.635Z,13.00
2019-04-19T09:52:59.912Z,13.10
2019-04-19T09:55:32.868Z,13.00
2019-04-19T09:58:05.822Z,13.83
2019-04-19T10:00:23.750Z,12.70
2019-04-19T10:02:56.458Z,12.80
2019-04-19T10:05:24.860Z,13.00
2019-04-19T10:07:56.766Z,13.23
2019-04-19T10:10:27.511Z,13.47
2019-04-19T10:12:58.297Z,13.60
2019-04-19T10:15:40.559Z,13.53
2019-04-19T10:18:12.505Z,13.60
2019-04-19T10:20:48.898Z,13.73
2019-04-19T10:23:19.835Z,13.43
2019-04-19T10:25:58.563Z,13.47
2019-04-19T10:28:28.413Z,13.70
2019-04-19T10:31:04.114Z,13.53
2019-04-19T10:33:38.992Z,13.43
2019-04-19T10:36:08.702Z,14.60
2019-04-19T10:38:40.900Z,13.53
2019-04-19T10:41:11.820Z,13.90
2019-04-19T10:43:43.298Z,13.93
2019-04-19T10:46:15.080Z,14.33
2019-04-19T10:48:56.387Z,13.70
2019-04-19T10:51:21.605Z,13.37
2019-04-19T10:53:52.684Z,14.23
2019-04-19T10:56:38.517Z,14.20
2019-04-19T10:59:09.328Z,14.10
2019-04-19T11:01:41.217Z,14.30
2019-04-19T11:04:12.997Z,14.57
2019-04-19T11:06:45.254Z,14.20
2019-04-19T11:09:16.389Z,13.67
2019-04-19T11:11:47.689Z,13.47
2019-04-19T11:14:18.506Z,13.93
2019-04-19T11:16:49.409Z,13.87
2019-04-19T11:19:32.913Z,13.33
2019-04-19T11:21:53.860Z,13.70
2019-04-19T11:24:25.600Z,14.87
2019-04-19T11:26:57.110Z,13.70
2019-04-19T11:29:28.207Z,13.43
2019-04-19T11:32:07.899Z,13.83
2019-04-19T11:34:40.949Z,14.03
2019-04-19T11:37:13.638Z,14.03
2019-04-19T11:39:46.251Z,15.00
2019-04-19T11:42:17.386Z,14.07
2019-04-19T11:44:48.255Z,14.60
2019-04-19T11:47:19.402Z,14.13
2019-04-19T11:49:51.307Z,13.90
2019-04-19T11:52:24.102Z,14.73
2019-04-19T11:54:54.887Z,14.43
2019-04-19T11:57:30.392Z,14.07
2019-04-19T12:00:09.742Z,14.23
2019-04-19T12:02:46.253Z,14.60
2019-04-19T12:05:23.291Z,14.00
2019-04-19T12:07:50.522Z,14.10
2019-04-19T12:10:21.467Z,14.00
2019-04-19T12:12:53.087Z,14.00
2019-04-19T12:15:27.685Z,14.60
2019-04-19T12:17:59.948Z,13.97
2019-04-19T12:20:31.124Z,13.77
2019-04-19T12:23:02.117Z,14.20
2019-04-19T12:25:33.426Z,14.50
2019-04-19T12:28:05.574Z,14.07
2019-04-19T12:30:38.372Z,14.47
2019-04-19T12:33:09.348Z,14.33
2019-04-19T12:35:41.219Z,13.93
2019-04-19T12:38:12.412Z,14.50
2019-04-19T12:40:47.982Z,14.07
2019-04-19T12:43:19.543Z,14.53
2019-04-19T12:45:52.539Z,14.07
2019-04-19T12:48:25.641Z,14.30
2019-04-19T12:50:56.496Z,14.03
2019-04-19T12:53:28.536Z,14.27
2019-04-19T12:55:59.982Z,14.20
2019-04-19T12:58:32.191Z,14.30
2019-04-19T13:01:05.902Z,14.47
2019-04-19T13:03:54.770Z,14.30
2019-04-19T13:06:27.646Z,14.17
2019-04-19T13:08:59.615Z,14.17
2019-04-19T13:11:30.489Z,13.90
2019-04-19T13:14:01.802Z,13.80
2019-04-19T13:16:32.644Z,14.37
2019-04-19T13:19:03.837Z,13.90
2019-04-19T13:21:34.607Z,13.70
2019-04-19T13:24:06.530Z,14.10
2019-04-19T13:26:37.462Z,14.00
2019-04-19T13:29:09.403Z,13.90
2019-04-19T13:31:40.880Z,13.57
2019-04-19T13:34:11.856Z,14.07
2019-04-19T13:36:45.028Z,14.10
2019-04-19T13:39:34.504Z,14.00
2019-04-19T13:42:07.185Z,14.67
2019-04-19T13:44:38.835Z,13.80
2019-04-19T13:47:10.870Z,13.90
2019-04-19T13:49:42.420Z,13.63
2019-04-19T13:52:14.530Z,13.70
2019-04-19T13:54:45.382Z,13.97
2019-04-19T13:57:17.534Z,14.20
2019-04-19T13:59:56.303Z,13.83
2019-04-19T14:02:21.089Z,14.20
2019-04-19T14:04:51.856Z,13.80
2019-04-19T14:07:23.204Z,14.13
2019-04-19T14:09:54.871Z,14.20
2019-04-19T14:12:27.087Z,14.50
2019-04-19T14:14:58.949Z,14.03
2019-04-19T14:17:31.687Z,14.57
2019-04-19T14:20:07.097Z,14.27
2019-04-19T14:22:39.326Z,14.57
2019-04-19T14:25:11.529Z,14.03
2019-04-19T14:27:42.467Z,14.43
2019-04-19T14:30:13.350Z,13.77
2019-04-19T14:32:45.366Z,14.40
2019-04-19T14:35:17.307Z,14.13
2019-04-19T14:37:48.267Z,14.63
2019-04-19T14:40:21.669Z,13.53
2019-04-19T14:42:52.696Z,14.13
2019-04-19T14:45:28.086Z,14.10
2019-04-19T14:47:59.297Z,13.90
2019-04-19T14:50:42.615Z,13.93
2019-04-19T14:53:03.596Z,14.23
2019-04-19T14:55:35.874Z,14.67
2019-04-19T14:58:06.708Z,14.97
2019-04-19T15:00:38.943Z,14.80
2019-04-19T15:03:12.740Z,14.67
2019-04-19T15:05:45.928Z,14.47
2019-04-19T15:08:17.036Z,14.00
2019-04-19T15:10:47.837Z,14.27
2019-04-19T15:13:18.945Z,14.10
2019-04-19T15:15:49.941Z,14.33
2019-04-19T15:18:23.230Z,14.23
2019-04-19T15:21:03.236Z,14.20
2019-04-19T15:23:26.848Z,14.90
2019-04-19T15:25:58.398Z,14.43
2019-04-19T15:28:29.346Z,15.13
2019-04-19T15:31:00.417Z,11.00
2019-04-19T15:33:32.279Z,10.50
2019-04-19T15:36:04.670Z,11.30
2019-04-19T15:38:35.837Z,11.20
2019-04-19T15:41:08.029Z,10.57
2019-04-19T15:43:40.162Z,11.10
2019-04-19T15:46:11.570Z,10.10
2019-04-19T15:48:46.898Z,10.10
2019-04-19T15:51:22.072Z,11.17
2019-04-19T15:53:50.238Z,10.43
2019-04-19T15:56:20.500Z,10.20
2019-04-19T15:58:51.282Z,10.10
2019-04-19T16:01:36.243Z,10.83
2019-04-19T16:04:08.020Z,10.80
2019-04-19T16:06:46.523Z,10.40
2019-04-19T16:09:22.422Z,10.50
2019-04-19T16:12:08.101Z,10.00
2019-04-19T16:14:39.924Z,10.77
2019-04-19T16:17:11.508Z,10.30
2019-04-19T16:19:42.813Z,10.03
2019-04-19T16:22:14.199Z,9.90
2019-04-19T16:24:45.229Z,11.17
2019-04-19T16:27:17.435Z,10.40
2019-04-19T16:29:52.030Z,10.27
2019-04-19T16:32:21.241Z,10.07
2019-04-19T16:34:52.061Z,9.93
2019-04-19T16:37:22.835Z,9.93
2019-04-19T16:39:53.994Z,10.20
2019-04-19T16:42:25.110Z,9.87
2019-04-19T16:44:56.267Z,10.27
2019-04-19T16:47:27.375Z,10.00
2019-04-19T16:49:58.613Z,9.80
2019-04-19T16:52:29.446Z,10.13
2019-04-19T16:55:00.646Z,10.20
2019-04-19T16:57:33.020Z,10.80
2019-04-19T17:00:09.130Z,10.40
2019-04-19T17:02:40.724Z,10.53
2019-04-19T17:05:12.682Z,10.00
2019-04-19T17:07:43.717Z,10.37
2019-04-19T17:10:15.684Z,9.90
2019-04-19T17:12:47.367Z,10.60
2019-04-19T17:15:37.001Z,10.10
2019-04-19T17:18:16.600Z,9.90
2019-04-19T17:21:01.795Z,9.90
2019-04-19T17:23:32.843Z,10.37
2019-04-19T17:26:04.723Z,9.60
2019-04-19T17:28:36.839Z,9.77
2019-04-19T17:31:08.639Z,10.27
2019-04-19T17:33:40.086Z,9.10
2019-04-19T17:36:12.431Z,10.53
2019-04-19T17:38:47.000Z,10.13
2019-04-19T17:41:16.609Z,9.90
2019-04-19T17:43:47.812Z,9.63
2019-04-19T17:46:18.723Z,9.70
2019-04-19T17:48:50.666Z,10.80
2019-04-19T17:51:21.996Z,11.40
2019-04-19T17:53:53.733Z,11.80
2019-04-19T17:56:24.725Z,11.57
2019-04-19T17:58:56.161Z,12.30
2019-04-19T18:01:28.190Z,11.87
2019-04-19T18:03:59.249Z,11.87
2019-04-19T18:06:30.122Z,11.60
2019-04-19T18:09:12.321Z,11.90
2019-04-19T18:11:38.394Z,12.63
2019-04-19T18:14:09.671Z,12.10
2019-04-19T18:16:40.690Z,11.73
2019-04-19T18:19:11.473Z,12.47
2019-04-19T18:21:43.717Z,12.73
2019-04-19T18:24:20.633Z,11.57
2019-04-19T18:26:47.297Z,11.33
2019-04-19T18:29:21.772Z,12.40
2019-04-19T18:32:00.401Z,12.40
2019-04-19T18:34:43.744Z,12.60
2019-04-19T18:37:17.308Z,12.00
2019-04-19T18:39:47.882Z,11.83
2019-04-19T18:42:19.878Z,12.47
2019-04-19T18:44:55.108Z,11.50
2019-04-19T18:47:24.792Z,12.07
2019-04-19T18:49:55.773Z,12.00
2019-04-19T18:52:36.739Z,12.60
2019-04-19T18:55:06.814Z,12.67
2019-04-19T18:57:33.955Z,12.53
2019-04-19T19:00:08.219Z,12.33
2019-04-19T19:02:39.028Z,12.80
2019-04-19T19:05:13.060Z,14.00
2019-04-19T19:07:43.380Z,13.40
2019-04-19T19:10:24.541Z,16.80
2019-04-19T19:12:50.998Z,19.20
2019-04-19T19:15:24.198Z,14.50
2019-04-19T19:17:57.662Z,13.47
2019-04-19T19:20:36.554Z,12.77
2019-04-19T19:23:18.530Z,12.33
2019-04-19T19:25:48.167Z,12.83
2019-04-19T19:28:17.188Z,12.63
2019-04-19T19:30:49.019Z,12.00
2019-04-19T19:33:23.676Z,12.73
2019-04-19T19:35:55.847Z,12.30
2019-04-19T19:38:28.655Z,12.27
2019-04-19T19:41:08.115Z,12.90
2019-04-19T19:43:48.753Z,12.27
2019-04-19T19:46:26.091Z,11.73
2019-04-19T19:51:25.394Z,11.67
2019-04-19T19:54:15.538Z,13.00
2019-04-19T19:56:40.605Z,13.50
2019-04-19T19:59:02.598Z,12.00
2019-04-19T20:01:30.639Z,12.23
2019-04-19T20:03:54.377Z,12.30
2019-04-19T20:06:28.277Z,12.50
2019-04-19T20:08:59.798Z,13.13
2019-04-19T20:11:34.125Z,12.93
2019-04-19T20:14:04.870Z,13.77
2019-04-19T20:16:37.918Z,14.20
2019-04-19T20:19:13.120Z,13.73
2019-04-19T20:21:45.146Z,14.07
2019-04-19T20:24:31.025Z,15.20
2019-04-19T20:26:58.597Z,12.80
2019-04-19T20:29:23.979Z,13.30
2019-04-19T20:31:52.512Z,13.13
2019-04-19T20:34:29.907Z,14.17
2019-04-19T20:36:55.975Z,13.13
2019-04-19T20:39:31.081Z,13.73
2019-04-19T20:42:02.824Z,14.03
2019-04-19T20:44:46.863Z,13.50
2019-04-19T20:47:04.793Z,13.77
2019-04-19T20:49:41.267Z,14.63
2019-04-19T20:52:19.028Z,12.60
2019-04-19T20:55:04.829Z,14.10
2019-04-19T20:57:33.500Z,12.97
2019-04-19T20:59:57.119Z,13.23
2019-04-19T21:02:31.887Z,12.90
2019-04-19T21:05:02.577Z,13.43
2019-04-19T21:07:33.703Z,13.17
2019-04-19T21:10:09.949Z,13.40
2019-04-19T21:12:39.454Z,14.20
2019-04-19T21:15:20.867Z,14.07
2019-04-19T21:17:47.666Z,15.03
2019-04-19T21:20:19.789Z,14.30
2019-04-19T21:22:48.737Z,14.20
2019-04-19T21:25:27.638Z,13.80
2019-04-19T21:27:55.150Z,14.73
2019-04-19T21:30:25.178Z,14.13
2019-04-19T21:33:05.780Z,13.80
2019-04-19T21:35:31.534Z,13.97
2019-04-19T21:38:11.399Z,14.60
2019-04-19T21:40:38.005Z,14.50
2019-04-19T21:43:09.108Z,14.30
2019-04-19T21:45:43.201Z,14.63
2019-04-19T21:48:12.928Z,15.10
2019-04-19T21:50:45.869Z,14.93
2019-04-19T21:53:16.662Z,13.90
2019-04-19T21:55:57.268Z,14.10
2019-04-19T21:58:23.181Z,15.43
2019-04-19T22:01:01.325Z,15.70
2019-04-19T22:03:30.428Z,14.00
2019-04-19T22:06:10.894Z,14.20
2019-04-19T22:08:36.698Z,14.93
2019-04-19T22:11:07.095Z,13.53
2019-04-19T22:13:41.845Z,14.33
2019-04-19T22:16:10.696Z,14.63
2019-04-19T22:18:45.770Z,15.40
2019-04-19T22:21:16.819Z,14.50
2019-04-19T22:23:50.966Z,15.80
2019-04-19T22:26:30.085Z,14.70
2019-04-19T22:28:53.443Z,15.83
2019-04-19T22:31:29.174Z,14.33
2019-04-19T22:33:57.024Z,14.80
2019-04-19T22:36:29.976Z,14.90
2019-04-19T22:39:02.025Z,15.23
2019-04-19T22:41:33.193Z,14.57
2019-04-19T22:44:04.776Z,14.70
2019-04-19T22:46:41.810Z,14.77
2019-04-19T22:49:10.335Z,14.97
2019-04-19T22:51:41.046Z,17.63
2019-04-19T22:54:12.719Z,15.27
2019-04-19T22:56:54.715Z,14.37
2019-04-19T22:59:19.690Z,14.67
2019-04-19T23:02:03.198Z,15.53
2019-04-19T23:04:31.180Z,13.53
2019-04-19T23:07:05.405Z,13.63
2019-04-19T23:09:34.955Z,14.47
2019-04-19T23:12:06.777Z,13.77
2019-04-19T23:14:52.057Z,14.77
2019-04-19T23:17:29.352Z,13.87
2019-04-19T23:19:55.722Z,13.97
2019-04-19T23:22:30.733Z,13.53
2019-04-19T23:25:04.053Z,14.23
2019-04-19T23:27:40.558Z,12.87
2019-04-19T23:30:17.018Z,13.57
2019-04-19T23:32:44.001Z,14.37
2019-04-19T23:35:16.237Z,14.93
2019-04-19T23:37:47.324Z,14.57
2019-04-19T23:40:21.685Z,13.60
2019-04-19T23:42:53.432Z,13.13
2019-04-19T23:45:25.475Z,13.90
2019-04-19T23:47:56.432Z,13.00
2019-04-19T23:50:32.666Z,13.47
2019-04-19T23:53:02.512Z,12.70
2019-04-19T23:55:32.788Z,12.90
2019-04-19T23:58:03.651Z,13.10
